Time;durP1;ratioP1;P1;durP2;ratioP2;P2;SDS_P1;SDS_P2;PMS_P1;PMS_P2;Temp;Humidity;BMP_temperature;BMP_pressure;BME280_temperature;BME280_humidity;BME280_pressure;Samples;Min_cycle;Max_cycle;Signal;HPM_P1;HPM_P2
2021/04/02 00:00:45;;;;;;;17.77;13.93;;;;;;;9.31;55.16;100211.20;1760627;80;21179;-49
2021/04/02 00:03:18;;;;;;;18.92;14.40;;;;;;;9.30;55.12;100210.77;1775546;80;21163;-49
2021/04/02 00:05:47;;;;;;;21.77;14.68;;;;;;;9.28;55.07;100213.85;1748015;82;21214;-49
2021/04/02 00:08:15;;;;;;;17.75;13.65;;;;;;;9.23;55.08;100213.45;1776222;81;21249;-50
2021/04/02 00:10:52;;;;;;;20.77;13.70;;;;;;;9.24;55.01;100222.22;1773207;81;21107;-49
2021/04/02 00:13:22;;;;;;;23.18;15.88;;;;;;;9.18;54.96;100219.64;1771110;80;21159;-63
2021/04/02 00:15:52;;;;;;;23.83;16.62;;;;;;;9.10;55.16;100218.84;1753146;81;21150;-49
2021/04/02 00:18:23;;;;;;;20.65;15.72;;;;;;;9.04;55.28;100206.64;1777610;80;21142;-49
2021/04/02 00:20:54;;;;;;;18.60;13.72;;;;;;;8.99;55.21;100200.56;1778685;80;21158;-49
2021/04/02 00:23:21;;;;;;;18.60;14.38;;;;;;;8.95;55.21;100197.53;1778635;80;21590;-49
2021/04/02 00:25:51;;;;;;;20.65;14.78;;;;;;;8.91;55.23;100195.35;1754257;81;21140;-49
2021/04/02 00:28:19;;;;;;;21.00;16.07;;;;;;;8.83;55.38;100194.58;1763545;80;21550;-49
2021/04/02 00:30:53;;;;;;;22.95;15.88;;;;;;;8.82;55.55;100198.08;1778711;80;21616;-64
2021/04/02 00:33:26;;;;;;;20.88;15.85;;;;;;;8.80;55.70;100202.02;1757311;81;21309;-63
2021/04/02 00:35:55;;;;;;;23.80;16.25;;;;;;;8.82;55.81;100197.63;1759783;80;21128;-48
2021/04/02 00:38:22;;;;;;;26.02;16.97;;;;;;;8.84;56.09;100201.11;1755035;80;21158;-64
2021/04/02 00:40:58;;;;;;;20.72;15.78;;;;;;;8.85;55.95;100188.41;1746400;82;21187;-49
2021/04/02 00:43:33;;;;;;;18.27;13.78;;;;;;;8.86;55.88;100187.53;1755813;81;21158;-49
2021/04/02 00:46:01;;;;;;;18.48;13.95;;;;;;;8.86;55.71;100181.39;1763152;81;21115;-64
2021/04/02 00:48:30;;;;;;;19.83;13.90;;;;;;;8.84;55.64;100176.17;1778810;81;21139;-63
2021/04/02 00:51:09;;;;;;;19.85;13.53;;;;;;;8.85;55.70;100177.91;1759525;80;21127;-64
2021/04/02 00:53:42;;;;;;;17.87;15.20;;;;;;;8.85;55.86;100167.42;1778460;81;21308;-64
2021/04/02 00:56:11;;;;;;;17.90;14.28;;;;;;;8.82;55.96;100167.44;1778506;80;21151;-49
2021/04/02 00:58:40;;;;;;;16.25;13.20;;;;;;;8.84;55.97;100163.05;1758356;81;21560;-49
2021/04/02 01:01:09;;;;;;;17.57;13.62;;;;;;;8.83;56.18;100157.83;1765559;79;21603;-49
2021/04/02 01:03:36;;;;;;;17.37;13.32;;;;;;;8.85;56.08;100158.66;1750038;81;21127;-64
2021/04/02 01:06:11;;;;;;;17.50;14.35;;;;;;;8.84;56.20;100149.93;1772354;80;21547;-49
2021/04/02 01:08:39;;;;;;;21.77;15.45;;;;;;;8.86;56.20;100148.59;1773648;81;21139;-49
2021/04/02 01:11:13;;;;;;;20.05;14.50;;;;;;;8.85;56.27;100147.73;1778704;81;21158;-64
2021/04/02 01:13:47;;;;;;;20.25;14.95;;;;;;;8.84;56.29;100142.05;1761065;80;21144;-49
2021/04/02 01:16:24;;;;;;;19.40;13.62;;;;;;;8.85;56.23;100135.92;1751148;80;21131;-63
2021/04/02 01:19:23;;;;;;;18.87;15.00;;;;;;;8.83;56.15;100130.27;1777799;81;21155;-49
2021/04/02 01:22:04;;;;;;;16.70;13.18;;;;;;;8.80;56.47;100128.53;1755512;80;21092;-49
2021/04/02 01:25:04;;;;;;;17.40;13.80;;;;;;;8.76;56.53;100128.13;1759822;81;21139;-49
2021/04/02 01:28:03;;;;;;;18.00;13.20;;;;;;;8.76;56.67;100117.63;1707989;81;21163;-63
2021/04/02 01:30:30;;;;;;;18.12;13.55;;;;;;;8.73;56.63;100116.34;1761119;81;21168;-49
2021/04/02 01:32:59;;;;;;;16.23;12.68;;;;;;;8.74;56.53;100107.16;1773201;81;21123;-64
2021/04/02 01:35:36;;;;;;;16.57;13.60;;;;;;;8.72;56.68;100106.73;1757682;81;21172;-64
2021/04/02 01:38:27;;;;;;;16.93;13.38;;;;;;;8.77;56.51;100093.12;1823648;77;22186;-48
2021/04/02 01:40:59;;;;;;;17.92;13.65;;;;;;;8.78;56.49;100092.24;1806952;78;21142;-50
2021/04/02 01:43:38;;;;;;;19.27;14.05;;;;;;;8.83;56.32;100084.34;1791768;80;21593;-63
2021/04/02 01:46:08;;;;;;;16.62;12.23;;;;;;;8.93;56.05;100076.36;1791637;80;21161;-49
2021/04/02 01:48:39;;;;;;;19.20;13.60;;;;;;;8.93;56.11;100069.80;1778827;80;21134;-50
2021/04/02 01:51:08;;;;;;;16.95;12.65;;;;;;;8.93;55.98;100069.80;1792670;80;21167;-49
2021/04/02 01:53:43;;;;;;;17.23;12.73;;;;;;;8.95;55.87;100066.28;1792158;80;21170;-50
2021/04/02 01:56:13;;;;;;;16.48;12.78;;;;;;;8.95;55.82;100065.83;1787516;78;21303;-49
2021/04/02 01:58:43;;;;;;;17.40;13.25;;;;;;;8.91;55.84;100066.73;1767472;80;21170;-49
2021/04/02 02:01:12;;;;;;;20.00;13.80;;;;;;;8.88;55.99;100055.84;1770897;80;21130;-49
2021/04/02 02:03:42;;;;;;;18.37;13.18;;;;;;;8.85;56.21;100057.19;1784350;80;21152;-63
2021/04/02 02:06:11;;;;;;;18.90;12.95;;;;;;;8.82;56.24;100051.97;1792086;78;21184;-63
2021/04/02 02:08:51;;;;;;;17.57;12.73;;;;;;;8.78;56.49;100053.77;1830976;77;22630;-48
2021/04/02 02:11:21;;;;;;;16.65;12.55;;;;;;;8.75;56.54;100059.05;1770396;80;21685;-50
2021/04/02 02:14:00;;;;;;;15.18;11.28;;;;;;;8.80;56.47;100064.69;1743011;81;21133;-50
2021/04/02 02:16:29;;;;;;;18.17;13.22;;;;;;;8.78;56.59;100059.44;1752182;81;21114;-50
2021/04/02 02:18:59;;;;;;;17.77;12.98;;;;;;;8.75;56.72;100051.17;1743469;81;21115;-65
2021/04/02 02:21:27;;;;;;;15.80;11.97;;;;;;;8.78;57.09;100055.50;1716220;81;21180;-64
2021/04/02 02:23:56;;;;;;;16.62;13.22;;;;;;;8.79;57.27;100048.06;1758591;81;21161;-51
2021/04/02 02:26:25;;;;;;;18.15;13.50;;;;;;;8.84;57.06;100043.64;1708364;81;21153;-64
2021/04/02 02:28:54;;;;;;;17.60;13.38;;;;;;;8.88;57.24;100046.66;1761702;81;21162;-64
2021/04/02 02:31:22;;;;;;;15.25;12.30;;;;;;;8.90;57.14;100047.52;1757809;81;21183;-50
2021/04/02 02:33:51;;;;;;;15.58;12.85;;;;;;;8.91;57.42;100044.42;1760973;81;21162;-51
2021/04/02 02:36:21;;;;;;;15.65;12.55;;;;;;;8.93;57.47;100042.66;1759597;81;21154;-65
2021/04/02 02:38:49;;;;;;;17.15;12.60;;;;;;;8.90;57.31;100038.33;1758458;81;21138;-51
2021/04/02 02:41:18;;;;;;;19.85;13.80;;;;;;;8.90;57.20;100036.13;1757894;81;21302;-51
2021/04/02 02:43:49;;;;;;;15.85;12.33;;;;;;;8.83;57.40;100036.65;1756854;81;21114;-50
2021/04/02 02:46:19;;;;;;;17.50;13.13;;;;;;;8.76;57.83;100033.23;1735808;81;21762;-62
2021/04/02 02:48:50;;;;;;;16.20;12.80;;;;;;;8.66;57.87;100032.00;1761272;81;21309;-49
2021/04/02 02:51:18;;;;;;;18.15;13.40;;;;;;;8.63;58.25;100028.52;1730766;81;21138;-62
2021/04/02 02:53:46;;;;;;;17.42;13.58;;;;;;;8.67;58.30;100025.45;1728709;82;21119;-63
2021/04/02 02:56:15;;;;;;;17.40;13.60;;;;;;;8.68;58.38;100024.56;1749311;81;21183;-48
2021/04/02 02:58:44;;;;;;;15.50;12.80;;;;;;;8.67;58.81;100027.19;1761852;81;21277;-62
2021/04/02 03:01:13;;;;;;;18.20;13.75;;;;;;;8.70;58.72;100032.41;1758710;80;21198;-62
2021/04/02 03:03:42;;;;;;;19.80;13.22;;;;;;;8.68;58.80;100028.50;1756618;81;21122;-62
2021/04/02 03:06:11;;;;;;;17.30;14.43;;;;;;;8.66;59.11;100024.13;1735778;81;21139;-63
2021/04/02 03:08:45;;;;;;;16.62;13.28;;;;;;;8.66;59.21;100019.77;1733183;81;21145;-50
2021/04/02 03:11:16;;;;;;;16.93;13.40;;;;;;;8.68;59.45;100014.06;1714364;82;21153;-50
2021/04/02 03:13:45;;;;;;;20.67;15.23;;;;;;;8.74;59.47;100014.01;1686926;84;21192;-63
2021/04/02 03:16:12;;;;;;;19.05;14.65;;;;;;;8.77;59.79;100019.65;1698213;83;21885;-63
2021/04/02 03:18:44;;;;;;;21.52;14.98;;;;;;;8.79;59.94;100007.39;1723798;83;21160;-63
2021/04/02 03:21:13;;;;;;;20.10;15.53;;;;;;;8.85;59.81;100002.50;1708127;82;21210;-49
2021/04/02 03:23:43;;;;;;;19.87;15.48;;;;;;;8.89;59.92;99997.64;1679423;84;21528;-63
2021/04/02 03:26:11;;;;;;;21.33;14.85;;;;;;;8.96;59.90;100001.09;1703517;83;21188;-63
2021/04/02 03:28:39;;;;;;;18.20;15.18;;;;;;;9.02;59.77;99993.14;1697448;83;21623;-62
2021/04/02 03:31:08;;;;;;;17.95;14.98;;;;;;;9.06;59.64;99984.31;1682818;83;21168;-49
2021/04/02 03:33:45;;;;;;;18.82;14.63;;;;;;;9.10;59.57;99987.79;1708855;83;21164;-50
2021/04/02 03:36:14;;;;;;;17.42;14.13;;;;;;;9.10;59.61;99983.39;1702231;83;21217;-49
2021/04/02 03:38:45;;;;;;;16.70;13.43;;;;;;;9.10;59.53;99986.48;1687176;84;21174;-64
2021/04/02 03:41:19;;;;;;;20.97;15.18;;;;;;;9.04;59.70;99983.03;1700906;83;21559;-50
2021/04/02 03:43:47;;;;;;;18.60;15.40;;;;;;;9.05;59.59;99978.20;1686169;84;21626;-50
2021/04/02 03:46:15;;;;;;;19.73;14.53;;;;;;;9.03;59.48;99972.57;1703926;83;21168;-49
2021/04/02 03:48:45;;;;;;;18.70;14.98;;;;;;;8.95;59.66;99973.10;1685844;83;21200;-50
2021/04/02 03:51:17;;;;;;;20.23;14.98;;;;;;;8.92;59.74;99959.55;1706591;83;21148;-62
2021/04/02 03:53:57;;;;;;;20.52;15.00;;;;;;;8.90;59.69;99958.27;1708395;83;21156;-50
2021/04/02 03:56:30;;;;;;;23.42;16.77;;;;;;;8.92;59.77;99955.62;1725511;82;21719;-49
2021/04/02 03:58:59;;;;;;;21.17;14.80;;;;;;;8.92;60.21;99947.74;1657106;85;21196;-63
2021/04/02 04:01:34;;;;;;;22.77;16.62;;;;;;;9.01;60.15;99945.00;1701657;83;21151;-63
2021/04/02 04:04:03;;;;;;;19.50;15.03;;;;;;;9.10;60.20;99940.53;1683844;83;21189;-50
2021/04/02 04:06:33;;;;;;;19.20;15.38;;;;;;;9.23;60.12;99942.11;1698147;82;21427;-63
2021/04/02 04:09:10;;;;;;;22.00;16.42;;;;;;;9.31;60.14;99940.22;1733205;81;21165;-63
2021/04/02 04:11:38;;;;;;;19.45;15.45;;;;;;;9.41;60.27;99942.72;1748799;81;21304;-63
2021/04/02 04:14:08;;;;;;;21.93;16.20;;;;;;;9.52;60.23;99941.66;1728416;81;21103;-64
2021/04/02 04:16:38;;;;;;;23.00;16.60;;;;;;;9.63;60.11;99941.95;1746553;81;21665;-64
2021/04/02 04:19:05;;;;;;;22.58;17.30;;;;;;;9.74;59.90;99933.89;1747858;81;21162;-64
2021/04/02 04:21:42;;;;;;;20.90;16.80;;;;;;;9.82;59.88;99934.22;1748958;81;21548;-64
2021/04/02 04:24:17;;;;;;;22.87;17.50;;;;;;;9.92;59.67;99924.87;1746829;81;21122;-64
2021/04/02 04:26:47;;;;;;;25.00;17.42;;;;;;;9.96;59.59;99916.89;1752012;81;21142;-64
2021/04/02 04:29:34;;;;;;;21.00;16.52;;;;;;;10.00;59.56;99919.00;1746045;81;21285;-64
2021/04/02 04:32:03;;;;;;;22.98;17.55;;;;;;;10.04;59.48;99910.17;1752148;81;21133;-64
2021/04/02 04:34:31;;;;;;;23.30;18.40;;;;;;;10.18;59.21;99913.02;1750990;81;21091;-62
2021/04/02 04:36:58;;;;;;;23.42;18.80;;;;;;;10.20;59.21;99913.85;1751453;81;21130;-63
2021/04/02 04:39:26;;;;;;;25.35;18.80;;;;;;;10.23;59.05;99908.08;1746110;81;21542;-62
2021/04/02 04:41:54;;;;;;;22.13;17.85;;;;;;;10.28;58.98;99918.53;1748454;81;21550;-63
2021/04/02 04:44:22;;;;;;;23.35;17.02;;;;;;;10.35;58.83;99916.21;1761868;81;21178;-50
2021/04/02 04:46:50;;;;;;;22.13;17.15;;;;;;;10.33;58.82;99921.95;1760222;81;21152;-50
2021/04/02 04:49:17;;;;;;;24.12;17.50;;;;;;;10.46;58.59;99929.19;1761918;80;21167;-50
2021/04/02 04:51:45;;;;;;;22.60;17.57;;;;;;;10.50;58.54;99930.87;1757358;81;21560;-62
2021/04/02 04:54:14;;;;;;;24.87;17.82;;;;;;;10.48;58.57;99922.13;1744881;81;21316;-49
2021/04/02 04:56:41;;;;;;;18.50;16.42;;;;;;;10.45;58.80;99916.05;1744022;81;21180;-50
2021/04/02 04:59:10;;;;;;;20.12;16.02;;;;;;;10.53;58.68;99913.70;1761556;81;21220;-50
2021/04/02 05:01:40;;;;;;;19.57;16.32;;;;;;;10.52;58.87;99914.60;1759979;81;21556;-50
2021/04/02 05:04:09;;;;;;;20.70;16.77;;;;;;;10.61;58.69;99913.97;1731365;83;21186;-49
2021/04/02 05:06:36;;;;;;;21.05;17.27;;;;;;;10.66;58.60;99912.13;1750451;81;21607;-49
2021/04/02 05:09:05;;;;;;;21.87;17.70;;;;;;;10.72;58.45;99914.64;1689498;84;21137;-51
2021/04/02 05:11:34;;;;;;;21.80;17.52;;;;;;;10.75;58.45;99907.99;1743114;81;21326;-63
2021/04/02 05:14:02;;;;;;;20.23;16.73;;;;;;;10.78;58.39;99903.13;1746883;81;21884;-64
2021/04/02 05:16:30;;;;;;;20.95;17.32;;;;;;;10.82;58.41;99900.39;1740602;81;21585;-49
2021/04/02 05:19:00;;;;;;;22.50;17.70;;;;;;;10.88;58.34;99898.53;1748165;82;21193;-49
2021/04/02 05:21:28;;;;;;;21.68;17.30;;;;;;;10.96;58.18;99895.30;1747943;81;21169;-50
2021/04/02 05:23:55;;;;;;;25.00;17.75;;;;;;;11.04;58.11;99893.33;1742955;81;21574;-63
2021/04/02 05:26:23;;;;;;;20.30;16.80;;;;;;;11.11;57.94;99890.98;1722966;82;21204;-63
2021/04/02 05:28:51;;;;;;;25.75;17.82;;;;;;;11.19;57.86;99889.52;1737821;82;21615;-63
2021/04/02 05:31:21;;;;;;;19.65;15.58;;;;;;;11.30;57.62;99882.20;1748253;82;21174;-63
2021/04/02 05:33:51;;;;;;;21.17;17.20;;;;;;;11.34;57.50;99875.11;1738463;82;21202;-63
2021/04/02 05:36:18;;;;;;;20.50;16.42;;;;;;;11.37;57.31;99878.11;1732675;81;21737;-50
2021/04/02 05:38:47;;;;;;;21.25;16.80;;;;;;;11.44;57.00;99875.75;1732304;82;21348;-63
2021/04/02 05:41:22;;;;;;;19.67;16.48;;;;;;;11.61;56.85;99874.02;1744362;81;21159;-63
2021/04/02 05:43:55;;;;;;;22.87;16.77;;;;;;;11.65;56.72;99867.77;1742077;82;21547;-63
2021/04/02 05:46:25;;;;;;;20.95;17.07;;;;;;;11.79;56.52;99864.78;1744760;81;21199;-63
2021/04/02 05:49:00;;;;;;;20.40;16.85;;;;;;;11.88;56.41;99867.66;1748119;82;21215;-49
2021/04/02 05:51:28;;;;;;;22.85;17.98;;;;;;;11.93;56.12;99868.84;1745736;81;21143;-63
2021/04/02 05:53:56;;;;;;;24.23;17.50;;;;;;;12.03;55.72;99866.42;1738945;82;21186;-64
2021/04/02 05:56:24;;;;;;;21.37;17.30;;;;;;;12.13;55.37;99863.95;1723337;81;21209;-63
2021/04/02 05:58:53;;;;;;;20.52;16.37;;;;;;;12.16;55.10;99856.39;1747984;82;21163;-51
2021/04/02 06:01:20;;;;;;;22.90;17.05;;;;;;;12.26;54.96;99863.16;1736381;81;21586;-51
2021/04/02 06:03:49;;;;;;;36.20;24.60;;;;;;;12.30;54.48;99862.61;1740685;82;21281;-50
2021/04/02 06:06:17;;;;;;;94.58;58.33;;;;;;;12.31;54.52;99859.94;1746275;82;21575;-50
2021/04/02 06:08:46;;;;;;;23.35;18.60;;;;;;;12.53;54.29;99858.47;1743776;81;21565;-51
2021/04/02 06:11:14;;;;;;;19.95;16.10;;;;;;;12.47;54.03;99860.81;1759763;81;21143;-51
2021/04/02 06:13:44;;;;;;;18.50;15.53;;;;;;;12.55;53.60;99857.50;1751291;81;21135;-51
2021/04/02 06:16:11;;;;;;;21.82;16.62;;;;;;;12.67;53.58;99860.70;1761597;81;21594;-50
2021/04/02 06:18:42;;;;;;;21.57;17.23;;;;;;;12.74;53.24;99849.05;1761058;81;21602;-52
2021/04/02 06:21:10;;;;;;;21.50;17.27;;;;;;;12.79;53.07;99852.43;1760546;81;21158;-51
2021/04/02 06:23:38;;;;;;;22.90;17.82;;;;;;;12.90;52.99;99849.45;1761499;81;21146;-50
2021/04/02 06:28:45;;;;;;;23.52;17.85;;;;;;;13.13;52.08;99846.55;1824016;77;22576;-48
2021/04/02 06:31:17;;;;;;;21.10;17.00;;;;;;;13.31;51.98;99842.01;1762224;80;21589;-48
2021/04/02 06:33:47;;;;;;;22.02;17.50;;;;;;;13.43;50.94;99838.59;1792979;80;21590;-49
2021/04/02 06:36:27;;;;;;;18.77;15.05;;;;;;;13.60;50.88;99836.23;1793327;80;21159;-50
2021/04/02 06:39:03;;;;;;;21.87;16.83;;;;;;;13.71;50.36;99830.58;1793565;80;21585;-49
2021/04/02 06:41:33;;;;;;;21.25;15.78;;;;;;;13.74;50.01;99832.27;1790296;80;21582;-49
2021/04/02 06:44:03;;;;;;;21.68;15.55;;;;;;;13.85;49.71;99834.09;1793156;80;21151;-50
2021/04/02 06:46:34;;;;;;;18.85;15.90;;;;;;;13.97;49.06;99832.80;1759904;80;21154;-50
2021/04/02 06:49:19;;;;;;;29.85;16.32;;;;;;;14.04;49.03;99821.53;1732804;80;21590;-50
2021/04/02 06:51:54;;;;;;;22.93;16.07;;;;;;;14.00;48.69;99819.91;1708496;83;21194;-49
2021/04/02 06:54:25;;;;;;;20.02;15.75;;;;;;;13.98;48.50;99822.62;1714965;83;21139;-50
2021/04/02 06:56:59;;;;;;;35.43;24.47;;;;;;;14.13;48.95;99822.05;1702951;84;21211;-63
2021/04/02 06:59:28;;;;;;;17.45;14.38;;;;;;;14.33;48.66;99817.83;1690140;84;21202;-63
2021/04/02 07:01:56;;;;;;;19.70;15.05;;;;;;;14.60;47.43;99811.56;1703633;83;21692;-63
2021/04/02 07:04:25;;;;;;;16.37;13.13;;;;;;;14.83;47.12;99810.23;1703504;83;21296;-64
2021/04/02 07:06:53;;;;;;;18.62;14.23;;;;;;;15.12;46.66;99803.37;1685354;84;21552;-64
2021/04/02 07:09:22;;;;;;;17.35;12.78;;;;;;;15.45;46.32;99800.28;1685388;84;21527;-63
2021/04/02 07:11:53;;;;;;;15.55;11.80;;;;;;;15.73;45.32;99789.34;1748365;81;21182;-63
2021/04/02 07:14:22;;;;;;;15.15;10.90;;;;;;;15.93;43.64;99792.08;1758149;81;21574;-63
2021/04/02 07:16:50;;;;;;;15.10;11.28;;;;;;;16.31;43.29;99796.17;1755300;81;21123;-63
2021/04/02 07:19:18;;;;;;;13.93;10.45;;;;;;;16.59;42.70;99792.23;1754855;81;21566;-63
2021/04/02 07:21:49;;;;;;;15.28;10.80;;;;;;;16.88;42.22;99779.34;1725023;82;21138;-64
2021/04/02 07:24:19;;;;;;;55.15;36.33;;;;;;;17.08;41.49;99771.77;1726984;83;21554;-63
2021/04/02 07:26:47;;;;;;;15.98;11.08;;;;;;;17.40;41.15;99778.63;1725666;83;21228;-52
2021/04/02 07:29:17;;;;;;;13.10;9.98;;;;;;;17.40;39.64;99777.30;1777908;81;21156;-52
2021/04/02 07:31:46;;;;;;;12.03;9.85;;;;;;;17.44;39.63;99770.01;1758104;81;21200;-51
2021/04/02 07:34:14;;;;;;;15.90;10.40;;;;;;;17.25;39.15;99768.27;1738543;82;21737;-52
2021/04/02 07:36:42;;;;;;;13.05;8.73;;;;;;;17.33;39.10;99776.72;1712974;84;21774;-52
2021/04/02 07:39:09;;;;;;;11.22;9.48;;;;;;;17.36;39.12;99775.73;1748982;81;21297;-53
2021/04/02 07:41:39;;;;;;;18.37;10.45;;;;;;;17.16;38.84;99767.41;1709540;84;21142;-63
2021/04/02 07:44:07;;;;;;;16.60;9.98;;;;;;;17.20;39.46;99767.66;1756579;81;21563;-64
2021/04/02 07:46:36;;;;;;;12.63;9.50;;;;;;;17.22;39.05;99767.95;1709620;83;21351;-63
2021/04/02 07:49:08;;;;;;;12.13;9.70;;;;;;;17.32;38.98;99767.51;1757056;80;21256;-64
2021/04/02 07:51:49;;;;;;;11.85;9.00;;;;;;;17.41;38.54;99761.73;1759927;81;21166;-52
2021/04/02 07:54:21;;;;;;;13.68;8.65;;;;;;;17.70;38.42;99755.38;1750751;81;21648;-52
2021/04/02 07:56:51;;;;;;;13.88;9.43;;;;;;;17.90;37.86;99748.13;1772550;81;21122;-52
2021/04/02 07:59:19;;;;;;;23.67;20.68;;;;;;;17.94;37.41;99743.91;1749890;81;21626;-53
2021/04/02 08:01:58;;;;;;;17.05;11.83;;;;;;;18.05;37.57;99738.52;1766531;81;21620;-53
2021/04/02 08:04:53;;;;;;;12.13;8.90;;;;;;;18.18;36.89;99739.55;1779220;80;21557;-52
2021/04/02 08:07:39;;;;;;;13.40;8.55;;;;;;;18.41;36.39;99726.80;1766283;81;21602;-51
2021/04/02 08:10:14;;;;;;;10.28;8.35;;;;;;;18.50;36.43;99723.62;1778847;81;21183;-53
2021/04/02 08:12:42;;;;;;;13.90;8.20;;;;;;;18.84;36.50;99716.83;1778259;81;21174;-52
2021/04/02 08:15:16;;;;;;;10.70;8.03;;;;;;;18.97;36.12;99727.22;1779048;81;21590;-53
2021/04/02 08:17:44;;;;;;;11.35;8.53;;;;;;;19.15;35.92;99725.77;1771655;81;21162;-52
2021/04/02 08:20:17;;;;;;;11.50;8.50;;;;;;;19.00;35.90;99729.70;1749507;81;21173;-53
2021/04/02 08:22:50;;;;;;;13.18;9.10;;;;;;;19.12;36.10;99720.61;1764608;81;21143;-53
2021/04/02 08:25:20;;;;;;;10.32;8.00;;;;;;;19.15;35.58;99715.10;1770002;81;21619;-53
2021/04/02 08:27:47;;;;;;;9.50;8.05;;;;;;;19.21;35.37;99708.53;1713031;83;21574;-52
2021/04/02 08:30:18;;;;;;;9.33;7.12;;;;;;;19.31;35.39;99703.05;1722776;83;21590;-52
2021/04/02 08:32:49;;;;;;;12.18;7.85;;;;;;;19.31;34.97;99716.38;1723778;83;21135;-53
2021/04/02 08:35:18;;;;;;;10.13;7.60;;;;;;;19.38;34.99;99716.41;1737557;82;21616;-52
2021/04/02 08:38:04;;;;;;;10.82;7.53;;;;;;;19.47;34.86;99713.66;1750475;82;21191;-52
2021/04/02 08:40:35;;;;;;;10.58;7.50;;;;;;;19.49;34.49;99702.88;1752240;82;21150;-52
2021/04/02 08:43:05;;;;;;;10.53;7.95;;;;;;;19.55;34.62;99702.51;1743298;82;21578;-52
2021/04/02 08:45:38;;;;;;;10.23;7.72;;;;;;;19.64;34.40;99700.62;1752531;82;21111;-51
2021/04/02 08:48:07;;;;;;;10.43;7.78;;;;;;;19.67;34.31;99711.57;1740958;82;21170;-52
2021/04/02 08:50:35;;;;;;;9.28;7.28;;;;;;;19.52;35.09;99692.02;1755592;82;21158;-52
2021/04/02 08:53:09;;;;;;;8.33;7.20;;;;;;;19.58;34.93;99688.98;1745796;81;21591;-53
2021/04/02 08:55:43;;;;;;;10.65;7.55;;;;;;;19.72;34.16;99690.34;1724777;83;21176;-52
2021/04/02 08:58:12;;;;;;;10.72;8.10;;;;;;;20.02;34.25;99682.72;1704874;83;21779;-53
2021/04/02 09:00:41;;;;;;;10.80;7.78;;;;;;;20.11;33.65;99689.78;1725561;83;21631;-63
2021/04/02 09:03:09;;;;;;;11.57;8.03;;;;;;;20.27;34.35;99677.17;1713453;83;21182;-64
2021/04/02 09:05:38;;;;;;;9.48;7.50;;;;;;;20.48;33.59;99685.62;1754587;82;21159;-63
2021/04/02 09:08:06;;;;;;;11.83;7.28;;;;;;;20.72;33.36;99674.27;1706569;83;21730;-63
2021/04/02 09:10:34;;;;;;;11.28;6.97;;;;;;;20.92;33.02;99665.44;1671070;83;21173;-52
2021/04/02 09:13:02;;;;;;;8.63;7.30;;;;;;;21.17;32.88;99666.45;1709120;83;21685;-52
2021/04/02 09:15:32;;;;;;;10.65;7.62;;;;;;;21.32;32.36;99656.04;1730176;82;21146;-53
2021/04/02 09:18:27;;;;;;;11.60;7.53;;;;;;;21.54;31.48;99655.88;1755659;82;21150;-63
2021/04/02 09:20:51;;;;;;;10.75;8.23;;;;;;;21.54;31.48;99655.88;1752488;82;21176;-63
2021/04/02 09:23:19;;;;;;;10.90;7.20;;;;;;;21.53;31.74;99635.42;1726546;82;21218;-63
2021/04/02 09:25:51;;;;;;;9.65;7.78;;;;;;;21.60;31.77;99640.72;1728214;82;21197;-63
2021/04/02 09:28:28;;;;;;;11.80;7.22;;;;;;;21.65;31.40;99631.05;1739517;82;21574;-63
2021/04/02 09:31:22;;;;;;;10.60;8.63;;;;;;;21.12;32.07;99627.98;1768403;81;21307;-52
2021/04/02 09:33:54;;;;;;;8.73;7.58;;;;;;;21.04;32.04;99635.16;1764591;81;21655;-52
2021/04/02 09:36:27;;;;;;;8.68;7.30;;;;;;;21.02;31.97;99622.88;1769113;81;21137;-53
2021/04/02 09:39:10;;;;;;;10.65;8.23;;;;;;;21.15;32.19;99625.09;1771987;80;21132;-53
2021/04/02 09:41:57;;;;;;;9.18;6.55;;;;;;;21.28;32.04;99622.42;1787052;80;21172;-53
2021/04/02 09:44:28;;;;;;;10.43;7.47;;;;;;;21.49;32.21;99615.17;1761589;80;21318;-63
2021/04/02 09:47:06;;;;;;;9.90;8.08;;;;;;;21.66;32.08;99626.06;1786690;80;21558;-63
2021/04/02 09:49:36;;;;;;;10.45;6.70;;;;;;;21.50;31.49;99619.10;1787233;80;21289;-52
2021/04/02 09:52:05;;;;;;;15.03;7.67;;;;;;;21.75;31.92;99626.75;1769555;80;21107;-63
2021/04/02 09:54:33;;;;;;;8.18;6.97;;;;;;;21.92;31.47;99622.02;1756004;82;21186;-53
2021/04/02 09:57:04;;;;;;;10.43;7.00;;;;;;;22.05;30.68;99624.66;1758311;80;21185;-53
2021/04/02 09:59:32;;;;;;;9.75;7.20;;;;;;;22.25;30.95;99618.72;1783709;80;21150;-62
2021/04/02 10:02:01;;;;;;;8.85;7.20;;;;;;;22.30;30.88;99615.69;1781745;80;21135;-63
2021/04/02 10:04:28;;;;;;;9.43;7.25;;;;;;;22.41;30.80;99601.48;1718678;83;21654;-53
2021/04/02 10:06:57;;;;;;;9.65;7.10;;;;;;;22.45;30.69;99602.16;1781196;80;21294;-63
2021/04/02 10:09:28;;;;;;;13.28;6.87;;;;;;;22.43;30.51;99600.45;1777826;80;21127;-53
2021/04/02 10:11:55;;;;;;;9.53;7.50;;;;;;;22.60;30.60;99586.74;1787655;80;21166;-53
2021/04/02 10:14:25;;;;;;;13.03;8.43;;;;;;;22.79;30.64;99576.31;1787068;80;21186;-63
2021/04/02 10:16:53;;;;;;;9.48;7.62;;;;;;;22.99;30.37;99580.14;1772030;80;21187;-53
2021/04/02 10:19:21;;;;;;;11.68;7.55;;;;;;;23.22;30.30;99576.64;1762320;80;21156;-63
2021/04/02 10:21:50;;;;;;;9.68;8.15;;;;;;;23.31;30.01;99568.78;1755976;82;21188;-63
2021/04/02 10:24:18;;;;;;;13.30;9.13;;;;;;;23.39;30.01;99573.53;1758367;80;21190;-63
2021/04/02 10:26:48;;;;;;;9.28;7.45;;;;;;;23.44;29.84;99578.05;1786559;80;21115;-63
2021/04/02 10:29:16;;;;;;;11.48;7.62;;;;;;;23.44;29.83;99570.47;1774418;80;21634;-54
2021/04/02 10:31:44;;;;;;;9.75;8.30;;;;;;;23.22;29.82;99557.86;1770066;81;21197;-63
2021/04/02 10:34:12;;;;;;;13.15;10.08;;;;;;;23.28;30.21;99557.41;1692273;85;21321;-53
2021/04/02 10:36:40;;;;;;;11.78;8.88;;;;;;;23.24;30.44;99551.44;1753466;81;21169;-53
2021/04/02 10:39:09;;;;;;;10.40;8.60;;;;;;;23.20;30.48;99549.06;1770021;81;21187;-63
2021/04/02 10:41:38;;;;;;;15.85;10.05;;;;;;;23.13;30.78;99547.36;1669791;84;21192;-53
2021/04/02 10:44:07;;;;;;;11.20;8.38;;;;;;;23.09;30.72;99549.91;1741560;82;21531;-63
2021/04/02 10:46:35;;;;;;;10.93;8.45;;;;;;;22.95;31.04;99553.21;1761536;81;21132;-53
2021/04/02 10:49:03;;;;;;;11.35;8.53;;;;;;;22.93;31.12;99546.23;1692262;85;21615;-53
2021/04/02 10:51:31;;;;;;;10.82;8.38;;;;;;;22.90;31.37;99538.42;1766954;81;21156;-53
2021/04/02 10:54:02;;;;;;;10.58;8.40;;;;;;;22.84;31.34;99535.23;1771700;81;21191;-53
2021/04/02 10:56:33;;;;;;;11.30;8.03;;;;;;;22.82;31.49;99535.00;1771376;81;21701;-53
2021/04/02 10:59:01;;;;;;;11.83;8.45;;;;;;;22.78;31.36;99547.77;1771573;81;21278;-63
2021/04/02 11:01:30;;;;;;;9.00;7.85;;;;;;;22.66;31.37;99540.19;1771882;81;21169;-63
2021/04/02 11:03:59;;;;;;;10.40;8.35;;;;;;;22.61;31.88;99544.20;1769414;81;21281;-53
2021/04/02 11:06:26;;;;;;;9.70;7.50;;;;;;;22.49;31.59;99536.63;1771751;81;21174;-53
2021/04/02 11:08:54;;;;;;;10.15;7.80;;;;;;;22.48;31.87;99536.25;1771859;81;21598;-63
2021/04/02 11:11:22;;;;;;;9.30;7.92;;;;;;;22.51;31.95;99526.63;1771526;81;21139;-63
2021/04/02 11:13:50;;;;;;;10.10;7.12;;;;;;;22.45;31.86;99523.08;1766621;81;21151;-52
2021/04/02 11:16:18;;;;;;;12.50;7.97;;;;;;;22.37;32.22;99516.43;1761675;81;21147;-63
2021/04/02 11:18:46;;;;;;;9.58;6.78;;;;;;;22.31;32.34;99524.93;1766730;81;21273;-53
2021/04/02 11:21:15;;;;;;;10.45;7.83;;;;;;;22.34;32.47;99518.47;1772253;81;21147;-53
2021/04/02 11:23:43;;;;;;;9.48;7.53;;;;;;;22.31;32.03;99515.55;1762410;81;21558;-53
2021/04/02 11:26:11;;;;;;;11.35;7.42;;;;;;;22.16;32.39;99512.20;1761999;81;21342;-62
2021/04/02 11:28:39;;;;;;;7.55;6.65;;;;;;;22.21;32.38;99508.69;1769527;80;21674;-53
2021/04/02 11:31:07;;;;;;;9.18;7.22;;;;;;;22.21;32.36;99499.31;1790346;80;21609;-63
2021/04/02 11:33:35;;;;;;;8.40;6.35;;;;;;;22.23;32.21;99502.73;1761672;81;21590;-63
2021/04/02 11:36:05;;;;;;;9.23;7.22;;;;;;;22.22;32.30;99494.80;1761625;81;21208;-52
2021/04/02 11:38:34;;;;;;;10.35;7.47;;;;;;;22.39;32.08;99506.45;1762741;80;21597;-63
2021/04/02 11:41:03;;;;;;;11.43;8.25;;;;;;;22.36;31.96;99495.08;1778175;80;21635;-53